TimeCST,TemperatureF,Dew PointF,Humidity,Sea Level PressureIn,VisibilityMPH,Wind Direction,Wind SpeedMPH,Gust SpeedMPH,PrecipitationIn,Events,Conditions,WindDirDegrees,DateUTC
12:15 AM,33.8,27.5,78,30.27,10.0,NW,6.9,-,N/A,,Clear,320,2013-01-17 06:15:00
12:35 AM,33.1,27.3,79,30.28,10.0,NW,5.8,-,N/A,,Clear,320,2013-01-17 06:35:00
12:55 AM,32.9,27.1,79,30.29,10.0,NW,6.9,-,N/A,,Clear,320,2013-01-17 06:55:00
1:15 AM,33.1,27.3,79,30.31,10.0,NW,5.8,-,N/A,,Clear,320,2013-01-17 07:15:00
1:35 AM,32.9,27.3,80,30.32,10.0,NW,5.8,-,N/A,,Clear,320,2013-01-17 07:35:00
1:55 AM,32.0,27.0,82,30.33,10.0,NW,6.9,-,N/A,,Clear,320,2013-01-17 07:55:00
2:15 AM,32.2,27.0,81,30.34,10.0,NW,6.9,-,N/A,,Clear,320,2013-01-17 08:15:00
2:35 AM,32.2,26.8,80,30.34,10.0,NW,5.8,-,N/A,,Clear,320,2013-01-17 08:35:00
2:55 AM,32.0,26.6,80,30.34,10.0,NW,4.6,-,N/A,,Clear,320,2013-01-17 08:55:00
3:15 AM,31.8,26.6,81,30.35,10.0,NW,4.6,-,N/A,,Clear,320,2013-01-17 09:15:00
3:35 AM,31.8,26.4,80,30.35,10.0,Calm,Calm,-,N/A,,Clear,0,2013-01-17 09:35:00
3:55 AM,30.6,25.7,82,30.35,10.0,Calm,Calm,-,N/A,,Clear,0,2013-01-17 09:55:00
4:15 AM,29.7,25.5,85,30.35,10.0,WNW,3.5,-,N/A,,Clear,300,2013-01-17 10:15:00
4:35 AM,30.2,25.7,83,30.35,10.0,Calm,Calm,-,N/A,,Clear,0,2013-01-17 10:35:00
4:55 AM,28.8,24.8,85,30.35,10.0,Calm,Calm,-,N/A,,Clear,0,2013-01-17 10:55:00
5:15 AM,27.5,23.9,86,30.36,10.0,Calm,Calm,-,N/A,,Clear,0,2013-01-17 11:15:00
5:35 AM,27.5,24.1,87,30.36,10.0,Calm,Calm,-,N/A,,Clear,0,2013-01-17 11:35:00
5:55 AM,26.6,23.0,86,30.37,10.0,Calm,Calm,-,N/A,,Clear,0,2013-01-17 11:55:00
6:15 AM,27.3,24.3,88,30.37,10.0,WSW,3.5,-,N/A,,Clear,250,2013-01-17 12:15:00
6:35 AM,27.3,24.3,88,30.38,10.0,West,5.8,-,N/A,,Clear,260,2013-01-17 12:35:00
6:55 AM,27.0,23.5,87,30.39,10.0,WSW,5.8,-,N/A,,Clear,250,2013-01-17 12:55:00
7:15 AM,27.0,23.7,88,30.39,10.0,Calm,Calm,-,N/A,,Clear,0,2013-01-17 13:15:00
7:35 AM,24.4,21.2,87,30.40,10.0,Calm,Calm,-,N/A,,Clear,0,2013-01-17 13:35:00
7:55 AM,25.0,22.3,89,30.40,10.0,Calm,Calm,-,N/A,,Clear,0,2013-01-17 13:55:00
8:15 AM,25.0,21.9,88,30.41,10.0,West,3.5,-,N/A,,Clear,260,2013-01-17 14:15:00
8:35 AM,26.2,22.8,87,30.42,10.0,Calm,Calm,-,N/A,,Clear,0,2013-01-17 14:35:00
8:55 AM,29.3,24.8,83,30.42,10.0,Calm,Calm,-,N/A,,Clear,0,2013-01-17 14:55:00
9:15 AM,31.3,25.7,80,30.43,10.0,West,3.5,-,N/A,,Clear,280,2013-01-17 15:15:00
9:35 AM,32.5,27.1,80,30.44,10.0,West,3.5,-,N/A,,Clear,280,2013-01-17 15:35:00
9:55 AM,35.1,28.8,78,30.45,10.0,West,3.5,-,N/A,,Clear,270,2013-01-17 15:55:00
10:15 AM,36.7,28.8,73,30.45,10.0,West,3.5,-,N/A,,Clear,260,2013-01-17 16:15:00
10:35 AM,38.5,29.3,70,30.46,10.0,West,3.5,-,N/A,,Clear,260,2013-01-17 16:35:00
10:55 AM,40.3,29.8,66,30.46,10.0,WNW,6.9,-,N/A,,Clear,290,2013-01-17 16:55:00
11:15 AM,41.5,30.0,64,30.46,10.0,NW,8.1,-,N/A,,Clear,310,2013-01-17 17:15:00
11:35 AM,42.3,29.5,61,30.45,10.0,NW,9.2,-,N/A,,Clear,310,2013-01-17 17:35:00
11:55 AM,43.7,29.3,57,30.45,10.0,NNW,6.9,-,N/A,,Clear,330,2013-01-17 17:55:00
12:15 PM,44.4,30.2,57,30.43,10.0,WNW,6.9,-,N/A,,Clear,300,2013-01-17 18:15:00
12:35 PM,45.7,30.4,55,30.42,10.0,West,6.9,-,N/A,,Clear,280,2013-01-17 18:35:00
12:55 PM,47.1,30.6,53,30.41,10.0,NNW,4.6,-,N/A,,Clear,340,2013-01-17 18:55:00
1:15 PM,47.7,30.6,52,30.40,10.0,NNW,3.5,-,N/A,,Clear,340,2013-01-17 19:15:00
1:35 PM,48.9,30.6,49,30.39,10.0,WNW,4.6,-,N/A,,Clear,290,2013-01-17 19:35:00
1:55 PM,50.2,30.6,47,30.39,10.0,NW,4.6,-,N/A,,Clear,310,2013-01-17 19:55:00
2:15 PM,50.5,30.4,46,30.38,10.0,WNW,5.8,-,N/A,,Clear,290,2013-01-17 20:15:00
2:35 PM,50.9,30.0,45,30.38,10.0,WNW,4.6,-,N/A,,Clear,290,2013-01-17 20:35:00
2:55 PM,51.3,29.8,44,30.38,10.0,West,4.6,-,N/A,,Clear,280,2013-01-17 20:55:00
3:15 PM,51.6,29.8,43,30.38,10.0,NW,5.8,-,N/A,,Clear,320,2013-01-17 21:15:00
3:35 PM,51.4,29.7,43,30.38,10.0,WNW,4.6,-,N/A,,Clear,290,2013-01-17 21:35:00
3:55 PM,51.4,29.7,43,30.38,10.0,Calm,Calm,-,N/A,,Clear,0,2013-01-17 21:55:00
4:55 PM,49.6,29.3,46,30.37,10.0,WSW,3.5,-,N/A,,Clear,250,2013-01-17 22:55:00
5:35 PM,45.0,28.6,53,30.36,10.0,SW,4.6,-,N/A,,Clear,230,2013-01-17 23:35:00
7:35 PM,33.1,27.0,78,30.36,10.0,Calm,Calm,-,N/A,,Clear,0,2013-01-18 01:35:00
7:55 PM,36.1,27.7,71,30.36,10.0,SW,4.6,-,N/A,,Clear,220,2013-01-18 01:55:00
8:15 PM,36.7,28.0,71,30.35,10.0,SSW,3.5,-,N/A,,Clear,210,2013-01-18 02:15:00
8:55 PM,38.5,28.8,68,30.34,10.0,SW,6.9,-,N/A,,Clear,220,2013-01-18 02:55:00
9:15 PM,37.8,28.4,69,30.33,10.0,SSW,8.1,-,N/A,,Clear,210,2013-01-18 03:15:00
9:35 PM,38.3,28.9,69,30.32,10.0,SW,9.2,-,N/A,,Clear,220,2013-01-18 03:35:00
9:55 PM,39.7,29.1,66,30.32,10.0,SW,9.2,-,N/A,,Clear,220,2013-01-18 03:55:00
11:15 PM,38.3,28.9,69,30.29,10.0,SSW,8.1,-,N/A,,Clear,210,2013-01-18 05:15:00
11:35 PM,38.5,28.8,68,30.28,10.0,SSW,11.5,-,N/A,,Clear,200,2013-01-18 05:35:00
11:55 PM,37.0,28.4,71,30.27,10.0,SSW,8.1,-,N/A,,Clear,200,2013-01-18 05:55:00